Time;durP1;ratioP1;P1;durP2;ratioP2;P2;SDS_P1;SDS_P2;PMS_P1;PMS_P2;Temp;Humidity;BMP_temperature;BMP_pressure;BME280_temperature;BME280_humidity;BME280_pressure;Samples;Min_cycle;Max_cycle;Signal;HPM_P1;HPM_P2
2021/03/14 00:00:08;;;;;;;14.96;8.96;;;;;;;4.40;71.16;98731.81;368523;107;1962945;-70
2021/03/14 00:01:14;;;;;;;14.44;8.63;;;;;;;4.40;71.29;98726.47;370102;107;1961996;-71
2021/03/14 00:02:20;;;;;;;15.99;8.69;;;;;;;4.46;71.17;98722.20;370683;107;1961931;-70
2021/03/14 00:03:28;;;;;;;13.29;8.56;;;;;;;4.51;71.16;98727.81;362541;109;1963944;-71
2021/03/14 00:04:35;;;;;;;14.96;8.64;;;;;;;4.55;71.06;98731.75;362693;109;1961926;-71
2021/03/14 00:05:42;;;;;;;16.12;8.58;;;;;;;4.60;70.95;98722.16;364609;109;1963985;-71
2021/03/14 00:06:49;;;;;;;15.58;9.19;;;;;;;4.68;70.65;98715.01;362172;109;1961900;-71
2021/03/14 00:07:55;;;;;;;14.00;8.39;;;;;;;4.72;70.38;98721.64;363651;109;1962026;-70
2021/03/14 00:09:01;;;;;;;14.45;8.89;;;;;;;4.75;70.23;98718.58;354612;111;1962018;-71
2021/03/14 00:10:08;;;;;;;16.93;9.61;;;;;;;4.74;70.06;98715.09;316150;109;2801930;-71
2021/03/14 00:11:14;;;;;;;14.22;9.03;;;;;;;4.74;70.26;98717.77;361254;109;1961933;-71
2021/03/14 00:12:20;;;;;;;16.22;9.25;;;;;;;4.77;70.21;98719.23;363452;109;1961959;-71
2021/03/14 00:13:29;;;;;;;15.09;9.09;;;;;;;4.82;70.04;98727.50;360398;109;1961957;-71
2021/03/14 00:14:34;;;;;;;14.61;9.71;;;;;;;4.87;69.73;98709.03;362398;109;1963965;-71
2021/03/14 00:15:40;;;;;;;17.19;9.88;;;;;;;4.87;69.65;98719.73;361914;110;1962945;-70
2021/03/14 00:16:48;;;;;;;14.40;9.62;;;;;;;4.87;69.53;98705.50;359084;107;1963893;-71
2021/03/14 00:17:53;;;;;;;15.43;9.48;;;;;;;4.85;69.44;98711.88;368702;107;1962678;-71
2021/03/14 00:18:59;;;;;;;18.12;10.09;;;;;;;4.84;69.23;98714.73;370762;106;1961942;-72
2021/03/14 00:20:06;;;;;;;18.69;10.36;;;;;;;4.73;69.31;98713.41;369956;107;1961947;-72
2021/03/14 00:21:12;;;;;;;17.78;11.24;;;;;;;4.62;69.45;98704.05;369056;107;1962040;-72
2021/03/14 00:22:17;;;;;;;15.59;10.70;;;;;;;4.53;69.68;98701.72;370681;107;1962074;-72
2021/03/14 00:23:23;;;;;;;19.19;13.42;;;;;;;4.45;69.81;98699.98;370468;107;1961924;-70
2021/03/14 00:24:29;;;;;;;17.22;11.98;;;;;;;4.33;70.20;98707.67;372693;104;1962165;-71
2021/03/14 00:25:35;;;;;;;18.49;10.83;;;;;;;4.24;70.52;98714.16;365314;106;2907717;-70
2021/03/14 00:26:42;;;;;;;17.81;10.05;;;;;;;4.09;70.61;98686.64;365070;106;1960691;-71
2021/03/14 00:27:47;;;;;;;16.01;9.89;;;;;;;4.13;70.91;98703.97;374067;108;1960733;-71
2021/03/14 00:30:21;;;;;;;15.68;9.51;;;;;;;4.25;71.66;98694.42;360057;104;2531025;-71
2021/03/14 00:31:26;;;;;;;16.48;10.03;;;;;;;4.20;71.53;98688.81;370602;105;1959704;-71
2021/03/14 00:32:35;;;;;;;16.51;9.51;;;;;;;4.25;71.32;98693.59;364078;108;1961995;-71
2021/03/14 00:33:40;;;;;;;15.69;9.22;;;;;;;4.22;71.33;98683.28;363767;106;1961992;-71
2021/03/14 00:34:46;;;;;;;14.43;9.12;;;;;;;4.31;71.36;98703.53;369198;108;1962079;-71
2021/03/14 00:35:52;;;;;;;15.51;8.97;;;;;;;4.35;71.35;98700.30;368561;108;1960772;-72
2021/03/14 00:36:58;;;;;;;16.99;9.42;;;;;;;4.39;71.10;98690.89;368108;108;1960646;-71
2021/03/14 00:38:03;;;;;;;15.49;8.68;;;;;;;4.40;71.12;98692.53;368610;108;1962009;-70
2021/03/14 00:39:09;;;;;;;17.79;9.41;;;;;;;4.45;70.98;98691.97;325700;108;2717016;-71
2021/03/14 00:40:16;;;;;;;14.44;8.34;;;;;;;4.50;70.78;98696.72;368979;108;1960751;-71
2021/03/14 00:41:22;;;;;;;15.81;8.47;;;;;;;4.51;70.62;98688.52;368153;108;1962901;-71
2021/03/14 00:42:28;;;;;;;13.88;8.67;;;;;;;4.56;70.74;98695.98;368164;108;1961002;-72
2021/03/14 00:43:34;;;;;;;14.51;8.82;;;;;;;4.59;70.46;98695.59;319159;108;2824938;-71
2021/03/14 00:44:40;;;;;;;15.15;8.61;;;;;;;4.59;70.48;98685.72;345200;108;1961966;-71
2021/03/14 00:45:45;;;;;;;13.56;8.82;;;;;;;4.64;70.26;98701.20;367123;108;1961818;-71
2021/03/14 00:46:53;;;;;;;13.24;7.44;;;;;;;4.67;70.06;98691.97;366290;108;1962961;-71
2021/03/14 00:48:01;;;;;;;15.28;8.79;;;;;;;4.69;70.06;98696.10;339028;108;2430912;-72
2021/03/14 00:49:19;;;;;;;12.66;8.31;;;;;;;4.71;69.91;98693.22;368715;108;1962876;-71
2021/03/14 00:50:26;;;;;;;13.71;7.76;;;;;;;4.70;69.79;98697.75;368586;108;1962907;-71
2021/03/14 00:51:33;;;;;;;14.36;9.36;;;;;;;4.69;69.85;98696.10;369898;103;1959684;-71
2021/03/14 00:52:39;;;;;;;15.12;9.20;;;;;;;4.72;69.55;98694.89;329901;108;2652991;-70
2021/03/14 00:53:45;;;;;;;16.74;10.31;;;;;;;4.66;69.48;98691.14;367635;108;1961959;-70
2021/03/14 00:54:52;;;;;;;15.78;10.18;;;;;;;4.56;69.57;98699.48;368948;102;1961923;-71
2021/03/14 00:55:58;;;;;;;15.86;9.22;;;;;;;4.46;69.69;98698.14;345183;109;2276938;-70
2021/03/14 00:57:04;;;;;;;15.40;10.16;;;;;;;4.38;69.80;98704.44;353845;108;1962024;-71
2021/03/14 00:58:09;;;;;;;15.64;9.82;;;;;;;4.29;70.00;98693.04;363407;110;1962901;-71
2021/03/14 00:59:16;;;;;;;17.93;10.89;;;;;;;4.20;70.18;98702.17;363197;110;1963974;-71
2021/03/14 01:00:23;;;;;;;20.03;11.01;;;;;;;4.09;70.38;98698.15;345713;108;1961906;-71
2021/03/14 01:01:29;;;;;;;16.43;10.07;;;;;;;4.02;70.70;98694.56;364253;108;1962054;-71
2021/03/14 01:02:35;;;;;;;14.71;8.69;;;;;;;3.95;70.97;98691.83;371851;107;1961901;-71
2021/03/14 01:03:41;;;;;;;14.94;8.61;;;;;;;3.93;71.35;98690.36;371975;107;1961934;-71
2021/03/14 01:04:47;;;;;;;13.29;8.82;;;;;;;3.98;71.42;98689.80;353662;106;2261652;-70
2021/03/14 01:05:52;;;;;;;14.13;8.62;;;;;;;4.01;71.41;98703.61;356714;106;1963013;-70
2021/03/14 01:06:58;;;;;;;14.06;8.41;;;;;;;4.03;71.33;98693.56;373726;107;1961993;-71
2021/03/14 01:08:05;;;;;;;14.97;9.16;;;;;;;4.09;71.59;98683.97;364878;108;1961925;-71
2021/03/14 01:09:24;;;;;;;14.05;8.77;;;;;;;4.16;71.49;98688.38;363996;108;1963008;-71
2021/03/14 01:10:31;;;;;;;12.32;7.26;;;;;;;4.25;71.25;98691.75;367899;109;1962929;-72
2021/03/14 01:11:37;;;;;;;13.76;7.71;;;;;;;4.32;71.02;98687.30;331043;109;2639999;-71
2021/03/14 01:12:42;;;;;;;13.83;8.67;;;;;;;4.38;70.82;98683.86;338993;110;1961894;-71
2021/03/14 01:13:51;;;;;;;14.64;8.47;;;;;;;4.44;70.51;98689.47;359347;111;1961976;-71
2021/03/14 01:14:57;;;;;;;13.81;7.19;;;;;;;4.47;70.51;98687.23;342762;113;1961017;-70
2021/03/14 01:16:08;;;;;;;14.25;8.20;;;;;;;4.53;70.31;98691.02;358460;113;1963043;-70
2021/03/14 01:17:16;;;;;;;14.47;7.75;;;;;;;4.53;70.20;98685.67;354668;113;1963036;-71
2021/03/14 01:18:22;;;;;;;13.30;7.91;;;;;;;4.56;70.10;98690.63;309119;113;2855012;-71
2021/03/14 01:19:28;;;;;;;14.40;7.80;;;;;;;4.62;69.86;98701.38;352305;112;1961931;-70
2021/03/14 01:20:36;;;;;;;13.21;8.84;;;;;;;4.63;69.78;98687.00;356395;112;1961987;-71
2021/03/14 01:21:41;;;;;;;14.79;8.91;;;;;;;4.66;69.61;98690.29;340229;112;2265956;-70
2021/03/14 01:22:48;;;;;;;17.01;8.79;;;;;;;4.61;69.58;98688.22;333503;113;1961976;-70
2021/03/14 01:23:54;;;;;;;14.85;8.58;;;;;;;4.56;69.62;98686.11;357470;111;1964943;-71
2021/03/14 01:25:00;;;;;;;13.87;8.79;;;;;;;4.48;69.66;98680.06;356425;111;1962012;-70
2021/03/14 01:26:05;;;;;;;17.01;10.04;;;;;;;4.39;69.81;98673.98;337421;111;2340086;-70
2021/03/14 01:27:11;;;;;;;15.57;9.57;;;;;;;4.29;70.17;98668.98;340215;113;1961944;-71
2021/03/14 01:28:16;;;;;;;12.87;8.12;;;;;;;4.23;70.22;98663.55;358173;113;1962082;-71
2021/03/14 01:29:21;;;;;;;15.27;8.57;;;;;;;4.14;70.54;98681.56;352147;114;1961923;-71
2021/03/14 01:30:29;;;;;;;13.16;8.19;;;;;;;4.10;70.97;98670.42;354794;113;1962017;-71
2021/03/14 01:31:35;;;;;;;13.96;8.03;;;;;;;4.08;70.99;98667.11;308759;114;2239668;-71
2021/03/14 01:32:42;;;;;;;16.40;8.83;;;;;;;4.08;71.26;98667.11;347607;112;1962001;-71
2021/03/14 01:33:47;;;;;;;13.52;8.78;;;;;;;4.09;71.20;98673.27;357962;113;1961981;-71
2021/03/14 01:34:54;;;;;;;13.59;8.01;;;;;;;4.12;71.23;98667.55;356781;112;1961962;-71
2021/03/14 01:36:00;;;;;;;14.72;8.12;;;;;;;4.15;71.23;98665.34;329839;111;1961937;-70
2021/03/14 01:37:05;;;;;;;13.64;7.88;;;;;;;4.17;71.25;98659.79;340406;113;1962062;-70
2021/03/14 01:38:11;;;;;;;13.12;8.24;;;;;;;4.21;71.24;98657.56;349033;113;1963972;-71
2021/03/14 01:39:16;;;;;;;14.25;8.59;;;;;;;4.23;71.12;98664.38;357023;112;1961980;-71
2021/03/14 01:40:23;;;;;;;14.01;7.72;;;;;;;4.25;71.10;98654.32;357347;112;1961995;-71
2021/03/14 01:41:29;;;;;;;12.37;7.17;;;;;;;4.27;71.13;98660.31;356867;111;1963951;-70
2021/03/14 01:42:35;;;;;;;14.57;8.41;;;;;;;4.33;70.99;98669.41;312688;111;2730953;-70
2021/03/14 01:43:41;;;;;;;12.66;7.42;;;;;;;4.35;70.83;98659.36;355230;113;1962011;-70
2021/03/14 01:44:48;;;;;;;12.21;7.50;;;;;;;4.39;70.71;98668.64;357073;113;1962033;-71
2021/03/14 01:45:54;;;;;;;13.91;7.33;;;;;;;4.44;70.63;98662.73;357699;111;1961941;-71
2021/03/14 01:47:00;;;;;;;13.35;7.19;;;;;;;4.46;70.47;98661.52;309629;113;2823973;-71
2021/03/14 01:48:07;;;;;;;12.54;7.38;;;;;;;4.46;70.42;98671.40;359084;108;1960589;-71
2021/03/14 01:49:15;;;;;;;12.74;7.52;;;;;;;4.46;70.47;98668.72;353956;113;1964927;-71
2021/03/14 01:50:25;;;;;;;12.69;7.64;;;;;;;4.52;70.15;98676.80;353559;113;1962000;-71
2021/03/14 01:51:32;;;;;;;13.19;7.59;;;;;;;4.54;69.99;98677.44;355757;112;1961907;-70
2021/03/14 01:52:39;;;;;;;14.21;8.72;;;;;;;4.55;70.03;98668.41;351933;113;1961941;-70
2021/03/14 01:53:45;;;;;;;14.92;8.39;;;;;;;4.57;69.78;98676.23;295160;113;2141457;-71
2021/03/14 01:54:50;;;;;;;14.15;8.83;;;;;;;4.56;69.74;98664.70;353677;113;1963792;-71
2021/03/14 01:55:56;;;;;;;12.77;8.41;;;;;;;4.49;69.65;98663.81;354479;112;1961965;-71
2021/03/14 01:57:03;;;;;;;15.52;8.65;;;;;;;4.44;69.82;98668.91;355607;112;1961937;-70
2021/03/14 01:58:11;;;;;;;14.81;9.06;;;;;;;4.39;69.86;98669.50;325695;112;1961930;-71
2021/03/14 01:59:17;;;;;;;16.04;9.92;;;;;;;4.28;70.04;98667.30;347761;116;1961955;-71
2021/03/14 02:00:26;;;;;;;16.53;9.73;;;;;;;4.15;70.20;98678.70;330746;116;2263679;-70
2021/03/14 02:01:43;;;;;;;14.77;8.70;;;;;;;4.05;70.44;98663.97;348125;116;1961968;-71
2021/03/14 02:02:49;;;;;;;11.93;7.28;;;;;;;3.94;71.00;98666.14;322224;114;1962040;-71
2021/03/14 02:03:54;;;;;;;16.14;9.01;;;;;;;3.92;71.34;98668.16;348240;116;1961989;-71
2021/03/14 02:05:00;;;;;;;16.78;8.11;;;;;;;3.91;71.67;98676.35;348373;114;1961973;-71
2021/03/14 02:06:05;;;;;;;13.13;8.17;;;;;;;3.93;71.49;98663.64;349203;115;1962034;-71
2021/03/14 02:07:14;;;;;;;13.46;8.19;;;;;;;3.94;71.73;98659.94;357234;113;1965039;-71
2021/03/14 02:08:20;;;;;;;14.48;8.08;;;;;;;3.97;71.72;98667.61;357722;112;1961929;-71
2021/03/14 02:09:27;;;;;;;16.64;7.68;;;;;;;3.96;71.60;98663.26;357935;113;1962049;-71
2021/03/14 02:10:36;;;;;;;13.96;7.86;;;;;;;4.00;71.64;98669.08;306745;112;2082649;-71
2021/03/14 02:11:46;;;;;;;13.09;8.16;;;;;;;3.99;71.74;98670.89;357307;112;1964031;-72
2021/03/14 02:12:59;;;;;;;14.44;8.83;;;;;;;4.08;71.66;98669.78;323100;112;2879939;-72
2021/03/14 02:14:07;;;;;;;13.67;7.93;;;;;;;4.12;71.36;98673.72;358210;113;1963907;-71
2021/03/14 02:15:16;;;;;;;13.53;7.83;;;;;;;4.13;71.19;98672.72;341676;112;1962745;-72
2021/03/14 02:16:28;;;;;;;13.30;8.18;;;;;;;4.12;71.35;98679.06;358210;113;1963877;-71
2021/03/14 02:17:37;;;;;;;12.11;7.47;;;;;;;4.17;71.29;98670.48;356701;112;1961912;-71
2021/03/14 02:18:47;;;;;;;13.63;7.63;;;;;;;4.22;71.14;98677.94;335866;112;1961983;-71
2021/03/14 02:20:02;;;;;;;14.55;8.61;;;;;;;4.28;70.89;98671.83;319900;113;2670037;-71
2021/03/14 02:21:09;;;;;;;13.98;8.62;;;;;;;4.31;70.74;98692.83;312220;112;2240952;-71
2021/03/14 02:22:14;;;;;;;16.65;9.68;;;;;;;4.33;70.45;98675.58;346118;116;1961955;-72
2021/03/14 02:23:32;;;;;;;13.82;7.89;;;;;;;4.29;70.55;98668.16;349384;112;1964019;-71
2021/03/14 02:24:47;;;;;;;14.01;8.15;;;;;;;4.32;70.41;98671.27;324899;111;1961995;-71
2021/03/14 02:25:59;;;;;;;15.51;8.72;;;;;;;4.31;70.35;98669.63;293529;111;2211960;-71
2021/03/14 02:27:06;;;;;;;;;;;;;;;4.30;70.42;98673.30;363697;111;1961026;-72
2021/03/14 02:28:12;;;;;;;12.54;7.83;;;;;;;4.30;70.51;98669.80;360586;111;1960884;-71
2021/03/14 02:29:21;;;;;;;13.59;7.84;;;;;;;4.27;70.42;98679.03;361065;112;1963011;-70
2021/03/14 02:30:27;;;;;;;14.22;9.19;;;;;;;4.28;70.44;98674.50;350973;113;1961954;-71
2021/03/14 02:31:33;;;;;;;14.44;8.50;;;;;;;4.26;70.45;98674.70;331471;112;2340978;-71
2021/03/14 02:32:41;;;;;;;14.22;8.76;;;;;;;4.25;70.47;98667.69;359600;111;1961964;-71
2021/03/14 02:33:50;;;;;;;13.95;9.04;;;;;;;4.25;70.50;98674.89;351694;113;1964258;-71
2021/03/14 02:34:59;;;;;;;16.12;9.32;;;;;;;4.25;70.60;98665.02;348905;114;1964035;-70
2021/03/14 02:36:08;;;;;;;12.53;7.78;;;;;;;4.25;70.57;98672.21;351437;114;1963928;-71
2021/03/14 02:37:16;;;;;;;13.93;8.61;;;;;;;4.25;70.54;98675.70;349550;114;1961951;-71
2021/03/14 02:38:23;;;;;;;13.10;8.43;;;;;;;4.23;70.60;98674.23;347602;114;1962021;-72
2021/03/14 02:39:29;;;;;;;14.99;8.08;;;;;;;4.23;70.61;98671.56;332192;114;1962013;-70
2021/03/14 02:40:36;;;;;;;13.82;8.92;;;;;;;4.26;70.48;98669.36;346967;114;1962063;-71
2021/03/14 02:41:45;;;;;;;17.42;9.13;;;;;;;4.24;70.39;98674.06;312329;114;2578008;-71
2021/03/14 02:42:52;;;;;;;13.57;9.04;;;;;;;4.24;70.51;98679.41;344181;116;1962965;-70
2021/03/14 02:43:59;;;;;;;15.68;9.26;;;;;;;4.20;70.67;98675.45;325582;116;1961912;-71
2021/03/14 02:45:07;;;;;;;14.51;8.48;;;;;;;4.25;70.52;98673.03;344028;116;1961960;-70
2021/03/14 02:46:13;;;;;;;16.06;9.57;;;;;;;4.23;70.60;98676.91;311012;114;1962076;-71
2021/03/14 02:47:21;;;;;;;14.01;8.04;;;;;;;4.22;70.47;98678.77;344615;115;1961999;-70
2021/03/14 02:48:29;;;;;;;15.91;8.94;;;;;;;4.21;70.61;98676.27;310404;113;1961993;-71
2021/03/14 02:49:37;;;;;;;15.07;8.08;;;;;;;4.22;70.54;98675.27;351029;113;1961954;-71
2021/03/14 02:50:43;;;;;;;16.13;9.27;;;;;;;4.18;70.59;98689.02;327611;114;2332039;-71
2021/03/14 02:51:49;;;;;;;14.60;8.94;;;;;;;4.17;70.68;98678.50;349293;114;1961992;-71
2021/03/14 02:52:55;;;;;;;16.17;9.41;;;;;;;4.17;70.66;98673.16;349550;114;1962971;-71
2021/03/14 02:54:02;;;;;;;15.38;8.76;;;;;;;4.12;70.81;98679.06;348988;114;1963981;-71
2021/03/14 02:55:11;;;;;;;14.63;8.66;;;;;;;4.16;70.80;98669.66;319067;114;2533055;-71
2021/03/14 02:56:17;;;;;;;15.70;9.37;;;;;;;4.15;70.81;98676.03;352029;114;1961878;-71
2021/03/14 02:57:24;;;;;;;13.12;7.93;;;;;;;4.10;71.24;98677.59;311003;113;2650966;-71
2021/03/14 02:58:31;;;;;;;14.32;8.87;;;;;;;4.14;71.01;98681.56;351372;113;1962940;-70
2021/03/14 02:59:39;;;;;;;13.86;8.69;;;;;;;4.18;70.74;98683.67;352849;113;1961946;-70
2021/03/14 03:00:45;;;;;;;14.64;9.00;;;;;;;4.15;70.75;98683.20;352123;113;1963983;-70
2021/03/14 03:01:53;;;;;;;12.29;8.17;;;;;;;4.15;70.80;98672.52;351652;114;1962013;-71
2021/03/14 03:03:02;;;;;;;15.71;9.43;;;;;;;4.13;70.91;98672.72;329560;113;1961947;-72
2021/03/14 03:04:22;;;;;;;14.31;8.31;;;;;;;4.09;71.06;98673.27;334801;112;2429989;-71
2021/03/14 03:05:29;;;;;;;15.06;8.74;;;;;;;4.09;71.20;98673.27;320918;113;2637930;-71
2021/03/14 03:06:34;;;;;;;13.79;7.86;;;;;;;4.13;71.00;98674.56;359535;113;1961989;-71
2021/03/14 03:07:42;;;;;;;13.42;8.40;;;;;;;4.11;71.11;98671.25;358291;111;1962008;-71
2021/03/14 03:08:48;;;;;;;15.19;8.98;;;;;;;4.14;70.96;98666.34;309878;115;2249937;-72
2021/03/14 03:09:54;;;;;;;15.41;8.88;;;;;;;4.17;70.88;98667.81;332328;115;1962988;-71
2021/03/14 03:11:03;;;;;;;14.36;8.75;;;;;;;4.11;70.96;98672.07;353317;114;1961983;-70
2021/03/14 03:12:11;;;;;;;14.18;8.14;;;;;;;4.09;71.14;98671.42;355540;114;1961982;-70
2021/03/14 03:13:17;;;;;;;14.57;8.58;;;;;;;4.08;70.93;98674.30;353866;114;1961940;-70
2021/03/14 03:14:27;;;;;;;15.16;9.54;;;;;;;4.04;71.17;98671.16;336447;116;1962004;-70
2021/03/14 03:15:34;;;;;;;19.24;9.98;;;;;;;4.04;71.22;98671.16;330803;114;2383927;-72
2021/03/14 03:16:42;;;;;;;15.41;9.14;;;;;;;4.07;71.10;98668.11;354384;114;1963016;-70
2021/03/14 03:17:49;;;;;;;17.32;10.81;;;;;;;4.00;71.09;98669.90;303280;114;2024565;-70
2021/03/14 03:19:12;;;;;;;16.96;10.62;;;;;;;3.96;71.44;98676.62;355567;114;1961903;-70
2021/03/14 03:20:20;;;;;;;15.31;9.58;;;;;;;3.99;71.35;98684.25;356508;112;1961978;-70
2021/03/14 03:21:26;;;;;;;15.61;10.33;;;;;;;3.99;71.35;98678.91;358417;112;1963948;-70
2021/03/14 03:22:32;;;;;;;17.10;10.05;;;;;;;3.96;71.33;98682.78;375474;107;1962082;-70
2021/03/14 03:23:39;;;;;;;14.77;9.22;;;;;;;3.93;71.51;98680.49;328286;107;2744238;-70
2021/03/14 03:24:50;;;;;;;16.53;10.89;;;;;;;3.90;71.58;98678.20;371818;108;1962029;-71
2021/03/14 03:26:03;;;;;;;15.38;10.01;;;;;;;3.91;71.46;98677.17;362245;108;1962002;-70
2021/03/14 03:27:08;;;;;;;15.50;10.53;;;;;;;3.88;71.72;98671.39;325560;110;1961969;-70
2021/03/14 03:28:14;;;;;;;15.74;9.55;;;;;;;3.91;71.69;98666.48;333794;111;1961999;-70
2021/03/14 03:29:20;;;;;;;15.07;10.22;;;;;;;3.93;71.33;98671.66;360118;109;1962014;-71
2021/03/14 03:30:28;;;;;;;16.99;11.27;;;;;;;3.89;71.57;98679.23;363554;111;1963942;-70
2021/03/14 03:31:33;;;;;;;17.06;10.28;;;;;;;3.94;71.23;98689.33;334080;109;1961999;-71
2021/03/14 03:32:39;;;;;;;18.35;11.47;;;;;;;3.88;71.41;98676.73;363896;109;1962083;-71
2021/03/14 03:33:45;;;;;;;17.46;10.95;;;;;;;3.94;71.11;98679.50;363500;109;1961834;-71
2021/03/14 03:34:50;;;;;;;18.44;11.16;;;;;;;3.92;71.10;98673.50;363022;109;1962009;-70
2021/03/14 03:35:57;;;;;;;19.11;11.23;;;;;;;3.85;71.44;98683.27;361116;111;1963962;-71
2021/03/14 03:37:03;;;;;;;18.39;11.16;;;;;;;3.84;71.45;98670.13;321599;109;2703989;-71
2021/03/14 03:38:08;;;;;;;17.99;11.13;;;;;;;3.89;71.26;98676.55;341876;109;1961948;-71
2021/03/14 03:39:27;;;;;;;17.68;10.83;;;;;;;3.91;71.28;98687.86;361280;109;1962062;-71
2021/03/14 03:40:33;;;;;;;17.62;10.97;;;;;;;3.95;71.30;98667.78;306087;110;2158284;-71
2021/03/14 03:41:45;;;;;;;18.63;11.24;;;;;;;3.95;71.26;98667.78;369806;110;1961937;-71
2021/03/14 03:43:03;;;;;;;17.04;10.42;;;;;;;3.98;71.15;98671.09;368022;110;1964005;-71
2021/03/14 03:44:08;;;;;;;17.95;10.29;;;;;;;3.97;71.27;98664.94;347298;112;1962031;-71
2021/03/14 03:45:16;;;;;;;17.28;10.82;;;;;;;4.00;71.20;98651.19;360787;112;1961930;-71
2021/03/14 03:46:23;;;;;;;17.79;10.74;;;;;;;4.04;71.15;98664.99;362682;110;1961932;-71
2021/03/14 03:47:29;;;;;;;18.77;10.60;;;;;;;4.04;71.03;98659.65;362421;110;1962007;-71
2021/03/14 03:48:50;;;;;;;19.66;11.62;;;;;;;4.04;71.18;98665.81;360513;112;1962900;-71
2021/03/14 03:49:57;;;;;;;18.06;10.41;;;;;;;4.06;71.05;98665.64;360765;111;1962016;-71
2021/03/14 03:51:04;;;;;;;16.23;11.51;;;;;;;4.05;71.20;98670.16;325614;111;1961863;-72
2021/03/14 03:52:13;;;;;;;19.10;11.02;;;;;;;4.05;71.23;98662.14;359235;112;1962972;-72
2021/03/14 03:53:18;;;;;;;21.04;12.32;;;;;;;4.11;71.11;98650.69;344678;112;1963011;-72
2021/03/14 03:54:25;;;;;;;19.67;11.97;;;;;;;4.13;70.99;98656.69;359887;110;1961917;-72
2021/03/14 03:55:31;;;;;;;20.55;11.42;;;;;;;4.21;70.67;98650.39;362392;110;1963948;-71
2021/03/14 03:56:38;;;;;;;20.48;11.79;;;;;;;4.17;70.70;98647.25;343515;110;2900937;-72
2021/03/14 03:57:44;;;;;;;21.61;12.12;;;;;;;4.14;70.74;98647.63;364321;107;1961894;-72
2021/03/14 03:58:52;;;;;;;20.59;12.33;;;;;;;4.10;70.90;98643.70;365071;110;1961910;-72
2021/03/14 03:59:58;;;;;;;24.82;13.43;;;;;;;4.08;71.16;98642.23;325311;110;2644978;-72
2021/03/14 04:01:04;;;;;;;21.63;12.89;;;;;;;4.09;71.04;98642.03;354066;109;1962947;-72
2021/03/14 04:02:12;;;;;;;21.77;12.48;;;;;;;4.08;71.13;98645.73;363377;111;1963003;-71
2021/03/14 04:03:21;;;;;;;22.71;13.10;;;;;;;3.93;71.79;98623.56;359359;111;1961941;-71
2021/03/14 04:04:28;;;;;;;21.66;13.07;;;;;;;4.00;71.57;98639.68;363040;110;1962074;-72
2021/03/14 04:05:33;;;;;;;21.92;13.28;;;;;;;4.05;71.44;98637.24;343721;111;1962007;-72
2021/03/14 04:06:41;;;;;;;22.11;12.61;;;;;;;4.05;71.31;98630.08;362744;110;1962017;-72
2021/03/14 04:07:50;;;;;;;23.84;13.41;;;;;;;4.08;71.15;98644.91;330718;110;2540967;-71
2021/03/14 04:08:55;;;;;;;20.08;13.52;;;;;;;4.07;71.16;98633.36;360750;111;1961968;-71
2021/03/14 04:10:02;;;;;;;21.32;13.46;;;;;;;4.10;71.12;98638.36;363666;110;1962933;-72
2021/03/14 04:11:10;;;;;;;24.39;14.07;;;;;;;4.03;71.32;98644.64;300562;111;2178036;-70
2021/03/14 04:12:18;;;;;;;24.36;15.39;;;;;;;4.06;71.27;98638.91;363009;111;1962002;-72
2021/03/14 04:13:24;;;;;;;24.18;14.08;;;;;;;3.99;71.56;98652.19;339759;111;1964937;-72
2021/03/14 04:14:30;;;;;;;24.25;14.84;;;;;;;3.96;71.46;98652.57;363036;110;1961928;-71
2021/03/14 04:15:37;;;;;;;22.88;14.57;;;;;;;3.95;71.60;98646.41;363104;109;1965503;-71
2021/03/14 04:16:45;;;;;;;20.94;12.90;;;;;;;3.97;71.62;98646.23;360633;110;1962094;-71
2021/03/14 04:17:53;;;;;;;24.76;14.36;;;;;;;3.96;71.84;98642.70;363669;110;1961004;-71
2021/03/14 04:19:01;;;;;;;24.31;13.24;;;;;;;3.99;71.71;98644.17;363355;110;1961998;-71
2021/03/14 04:20:10;;;;;;;26.08;15.06;;;;;;;4.01;71.50;98647.49;363928;110;1964919;-71
2021/03/14 04:21:19;;;;;;;24.89;15.66;;;;;;;4.00;71.60;98653.86;362195;111;1962029;-71
2021/03/14 04:22:26;;;;;;;23.96;15.41;;;;;;;4.04;71.37;98648.95;361754;110;1962073;-71
2021/03/14 04:23:35;;;;;;;23.25;14.71;;;;;;;3.98;71.66;98650.55;318265;111;2769012;-71
2021/03/14 04:24:43;;;;;;;23.08;15.05;;;;;;;4.00;71.70;98655.72;362876;109;1962039;-71
2021/03/14 04:25:52;;;;;;;24.59;15.07;;;;;;;3.99;71.75;98649.52;363347;111;1962013;-72
2021/03/14 04:27:02;;;;;;;24.20;15.09;;;;;;;3.98;71.67;98647.88;361395;111;1962912;-71
2021/03/14 04:28:08;;;;;;;24.54;14.94;;;;;;;3.98;71.58;98661.23;337920;109;2374955;-72
2021/03/14 04:29:15;;;;;;;22.48;14.11;;;;;;;3.99;71.58;98651.37;361376;105;1959714;-71
2021/03/14 04:30:25;;;;;;;24.57;13.92;;;;;;;3.94;71.81;98652.78;328844;113;2393025;-70
2021/03/14 04:31:31;;;;;;;22.18;13.74;;;;;;;3.98;71.82;98649.72;354120;114;1961940;-71
2021/03/14 04:32:37;;;;;;;25.34;14.51;;;;;;;3.99;71.90;98646.02;345212;117;1961968;-72
2021/03/14 04:33:55;;;;;;;23.39;14.64;;;;;;;4.00;71.83;98645.84;322756;117;1961933;-71
2021/03/14 04:35:01;;;;;;;23.11;14.74;;;;;;;4.04;71.79;98647.11;363661;109;1961995;-71
2021/03/14 04:36:10;;;;;;;21.66;12.83;;;;;;;4.04;71.68;98652.45;314319;111;2763920;-71
2021/03/14 04:37:17;;;;;;;26.92;15.34;;;;;;;4.12;71.53;98646.98;359701;111;1962964;-71
2021/03/14 04:38:23;;;;;;;24.09;14.62;;;;;;;4.14;71.37;98652.16;324611;112;1964950;-71
2021/03/14 04:39:28;;;;;;;26.06;15.17;;;;;;;4.14;71.26;98647.63;341677;110;1964969;-71
2021/03/14 04:40:35;;;;;;;24.85;15.22;;;;;;;4.16;71.30;98648.28;358098;111;1962055;-71
2021/03/14 04:41:44;;;;;;;23.81;14.30;;;;;;;4.19;71.11;98650.56;358116;111;1962026;-72
2021/03/14 04:42:52;;;;;;;26.44;14.18;;;;;;;4.18;71.15;98651.59;357227;111;1961913;-71
2021/03/14 04:43:59;;;;;;;26.08;14.93;;;;;;;4.24;71.00;98649.19;320563;111;1963880;-71
2021/03/14 04:45:06;;;;;;;27.72;15.79;;;;;;;4.24;70.89;98657.20;356237;111;1962039;-71
2021/03/14 04:46:14;;;;;;;26.32;15.18;;;;;;;4.25;70.92;98657.00;318886;111;2668988;-71
2021/03/14 04:47:20;;;;;;;25.00;15.24;;;;;;;4.29;70.75;98657.47;358409;111;1961959;-71
2021/03/14 04:48:26;;;;;;;26.43;14.41;;;;;;;4.29;70.80;98649.44;357997;111;1961906;-71
2021/03/14 04:49:33;;;;;;;24.89;14.24;;;;;;;4.34;70.75;98655.87;320996;111;2637028;-71
2021/03/14 04:50:40;;;;;;;23.24;14.04;;;;;;;4.37;70.43;98660.83;358717;111;1964938;-71
2021/03/14 04:51:48;;;;;;;24.59;15.07;;;;;;;4.36;70.42;98656.48;359178;111;1961929;-71
2021/03/14 04:52:56;;;;;;;26.29;16.49;;;;;;;4.36;70.41;98651.14;352872;113;1962057;-72
2021/03/14 04:54:14;;;;;;;26.79;15.77;;;;;;;4.36;70.46;98642.30;308125;111;2795030;-71
2021/03/14 04:55:21;;;;;;;25.37;16.06;;;;;;;4.33;70.56;98646.17;353236;113;1961950;-71
2021/03/14 04:56:29;;;;;;;26.97;13.60;;;;;;;4.35;70.52;98643.32;323670;113;1965007;-71
2021/03/14 04:57:37;;;;;;;21.32;13.93;;;;;;;4.40;70.32;98640.91;350438;113;1962081;-71
2021/03/14 04:58:43;;;;;;;24.00;14.50;;;;;;;4.45;70.11;98640.34;304687;113;2018151;-85
2021/03/14 04:59:50;;;;;;;25.96;15.21;;;;;;;4.41;70.19;98639.88;350278;113;1962962;-71
2021/03/14 05:00:59;;;;;;;26.17;15.07;;;;;;;4.40;70.22;98656.95;349948;113;1963956;-71
2021/03/14 05:02:06;;;;;;;26.84;14.98;;;;;;;4.40;70.26;98649.75;350448;113;1963005;-71
2021/03/14 05:03:14;;;;;;;24.79;14.56;;;;;;;4.42;70.36;98646.90;311773;113;2658006;-71
2021/03/14 05:04:24;;;;;;;27.29;15.73;;;;;;;4.46;70.09;98653.50;351363;113;1963994;-71
2021/03/14 05:05:30;;;;;;;25.32;16.42;;;;;;;4.43;70.20;98650.39;349867;113;1962003;-71
2021/03/14 05:06:44;;;;;;;29.72;16.22;;;;;;;4.43;70.20;98650.39;352654;113;1962980;31
2021/03/14 05:07:51;;;;;;;24.22;14.56;;;;;;;4.39;70.39;98645.44;368895;109;1962005;-71
2021/03/14 05:08:58;;;;;;;22.63;14.88;;;;;;;4.46;70.34;98652.68;369576;109;1963934;-70
2021/03/14 05:10:07;;;;;;;25.47;14.79;;;;;;;4.49;70.20;98649.61;369951;107;1962072;-71